Terminal Aerodrome Forecast
Issued by NWS Charleston, WV

Current Version | Previous Version | Text Only | Print | Product List | Glossary Off
Versions: 1 2 3 4 5 6 7 8 9 10 11 12 13 14 15 16 17 18 19 20 21 22 23 24 25 26 27 28 29 30

000
FTUS41 KRLX 021700 AAB
TAFCRW
TAF AMD
KCRW 021708Z 0217/0312 22009KT P6SM VCTS BKN045CB
     FM021730 29012G22KT 2SM TSRA BR BKN025CB
     FM021830 24009KT P6SM BKN040
     FM022000 25010G15KT 5SM TSRA BR BKN040CB
     FM022300 25006KT P6SM VCTS BKN050CB
     FM030200 24002KT P6SM BKN080
     FM030400 00000KT 6SM BR SCT080
     FM030700 00000KT 1/4SM FG VV001=

USA.gov is the U.S. government's official web portal to all federal, state and local government web resources and services.